createdAt,value
2023-04-11T00:01:13.968Z,100.00
2023-04-11T00:03:40.966Z,100.00
2023-04-11T00:06:07.801Z,100.00
2023-04-11T00:08:34.515Z,100.00
2023-04-11T00:11:00.887Z,100.00
2023-04-11T00:13:27.293Z,100.00
2023-04-11T00:15:55.949Z,100.00
2023-04-11T00:18:22.998Z,100.00
2023-04-11T00:20:49.464Z,100.00
2023-04-11T00:23:15.931Z,100.00
2023-04-11T00:25:42.340Z,100.00
2023-04-11T00:28:09.940Z,100.00
2023-04-11T00:30:36.447Z,100.00
2023-04-11T00:33:03.894Z,100.00
2023-04-11T00:35:34.219Z,100.00
2023-04-11T00:38:02.096Z,100.00
2023-04-11T00:40:28.530Z,100.00
2023-04-11T00:42:56.203Z,100.00
2023-04-11T00:45:23.231Z,100.00
2023-04-11T00:47:50.942Z,100.00
2023-04-11T00:50:18.752Z,100.00
2023-04-11T00:52:47.805Z,100.00
2023-04-11T00:55:14.844Z,100.00
2023-04-11T00:57:42.593Z,100.00
2023-04-11T01:00:10.639Z,100.00
2023-04-11T01:02:38.462Z,100.00
2023-04-11T01:05:05.847Z,100.00
2023-04-11T01:07:33.348Z,100.00
2023-04-11T01:10:02.621Z,100.00
2023-04-11T01:12:30.868Z,100.00
2023-04-11T01:14:57.798Z,100.00
2023-04-11T01:17:26.602Z,100.00
2023-04-11T01:19:53.866Z,100.00
2023-04-11T01:22:24.377Z,100.00
2023-04-11T01:24:51.374Z,100.00
2023-04-11T01:27:18.322Z,100.00
2023-04-11T01:29:44.695Z,100.00
2023-04-11T01:32:11.174Z,100.00
2023-04-11T01:34:41.075Z,100.00
2023-04-11T01:37:08.149Z,100.00
2023-04-11T01:39:34.886Z,100.00
2023-04-11T01:42:02.789Z,100.00
2023-04-11T01:44:31.803Z,100.00
2023-04-11T01:46:58.413Z,100.00
2023-04-11T01:49:26.121Z,100.00
2023-04-11T01:51:52.728Z,100.00
2023-04-11T01:54:19.359Z,100.00
2023-04-11T01:56:46.657Z,100.00
2023-04-11T01:59:13.138Z,100.00
2023-04-11T02:01:40.673Z,100.00
2023-04-11T02:04:07.147Z,100.00
2023-04-11T02:06:33.866Z,100.00
2023-04-11T02:09:00.354Z,100.00
2023-04-11T02:11:27.220Z,100.00
2023-04-11T02:13:53.616Z,100.00
2023-04-11T02:16:20.983Z,100.00
2023-04-11T02:18:47.437Z,100.00
2023-04-11T02:21:14.399Z,100.00
2023-04-11T02:23:40.742Z,100.00
2023-04-11T02:26:07.611Z,100.00
2023-04-11T02:28:34.160Z,100.00
2023-04-11T02:31:01.406Z,100.00
2023-04-11T02:33:27.964Z,100.00
2023-04-11T02:35:54.853Z,100.00
2023-04-11T02:38:21.432Z,100.00
2023-04-11T02:40:47.998Z,100.00
2023-04-11T02:43:15.143Z,100.00
2023-04-11T02:45:42.098Z,100.00
2023-04-11T02:48:08.485Z,100.00
2023-04-11T02:50:34.872Z,100.00
2023-04-11T02:53:01.652Z,100.00
2023-04-11T02:55:28.005Z,100.00
2023-04-11T02:57:54.421Z,100.00
2023-04-11T03:00:21.309Z,100.00
2023-04-11T03:02:49.009Z,100.00
2023-04-11T03:05:16.113Z,100.00
2023-04-11T03:07:43.789Z,100.00
2023-04-11T03:10:10.911Z,100.00
2023-04-11T03:12:37.342Z,100.00
2023-04-11T03:15:04.335Z,100.00
2023-04-11T03:17:30.737Z,100.00
2023-04-11T03:19:57.112Z,100.00
2023-04-11T03:22:24.718Z,100.00
2023-04-11T03:24:51.173Z,100.00
2023-04-11T03:27:17.765Z,100.00
2023-04-11T03:29:44.151Z,100.00
2023-04-11T03:32:10.944Z,100.00
2023-04-11T03:34:37.303Z,100.00
2023-04-11T03:37:03.787Z,100.00
2023-04-11T03:39:30.209Z,100.00
2023-04-11T03:41:57.930Z,100.00
2023-04-11T03:44:24.283Z,100.00
2023-04-11T03:46:51.157Z,100.00
2023-04-11T03:49:17.524Z,100.00
2023-04-11T03:51:44.319Z,100.00
2023-04-11T03:54:10.697Z,100.00
2023-04-11T03:56:37.413Z,100.00
2023-04-11T03:59:03.829Z,100.00
2023-04-11T04:01:32.074Z,100.00
2023-04-11T04:04:00.540Z,100.00
2023-04-11T04:06:28.587Z,100.00
2023-04-11T04:08:55.425Z,100.00
2023-04-11T04:11:21.900Z,100.00
2023-04-11T04:13:48.994Z,100.00
2023-04-11T04:16:17.512Z,100.00
2023-04-11T04:18:44.006Z,100.00
2023-04-11T04:21:10.365Z,100.00
2023-04-11T04:23:39.564Z,100.00
2023-04-11T04:26:06.869Z,100.00
2023-04-11T04:28:33.573Z,100.00
2023-04-11T04:31:02.751Z,100.00
2023-04-11T04:33:32.849Z,100.00
2023-04-11T04:36:00.427Z,100.00
2023-04-11T04:38:28.789Z,100.00
2023-04-11T04:40:56.834Z,100.00
2023-04-11T04:43:24.276Z,100.00
2023-04-11T04:45:51.010Z,100.00
2023-04-11T04:48:17.475Z,100.00
2023-04-11T04:50:45.496Z,100.00
2023-04-11T04:53:11.909Z,100.00
2023-04-11T04:55:38.362Z,100.00
2023-04-11T04:58:04.733Z,100.00
2023-04-11T05:00:31.263Z,100.00
2023-04-11T05:02:57.919Z,100.00
2023-04-11T05:05:24.579Z,100.00
2023-04-11T05:07:51.039Z,100.00
2023-04-11T05:10:17.785Z,100.00
2023-04-11T05:12:44.209Z,100.00
2023-04-11T05:15:11.741Z,100.00
2023-04-11T05:17:38.786Z,100.00
2023-04-11T05:20:07.549Z,100.00
2023-04-11T05:22:34.182Z,100.00
2023-04-11T05:25:00.988Z,100.00
2023-04-11T05:27:27.705Z,100.00
2023-04-11T05:29:54.171Z,100.00
2023-04-11T05:32:20.636Z,100.00
2023-04-11T05:34:56.550Z,100.00
2023-04-11T05:37:25.949Z,100.00
2023-04-11T05:39:52.650Z,100.00
2023-04-11T05:42:19.038Z,100.00
2023-04-11T05:44:45.499Z,100.00
2023-04-11T05:47:11.875Z,100.00
2023-04-11T05:49:38.459Z,100.00
2023-04-11T05:52:05.318Z,100.00
2023-04-11T05:54:36.272Z,100.00
2023-04-11T05:57:03.562Z,100.00
2023-04-11T05:59:33.058Z,100.00
2023-04-11T06:01:59.894Z,100.00
2023-04-11T06:04:26.776Z,100.00
2023-04-11T06:06:53.907Z,100.00
2023-04-11T06:09:20.422Z,100.00
2023-04-11T06:11:46.820Z,100.00
2023-04-11T06:14:13.642Z,100.00
2023-04-11T06:16:40.136Z,100.00
2023-04-11T06:19:06.545Z,100.00
2023-04-11T06:21:32.954Z,100.00
2023-04-11T06:24:09.808Z,100.00
2023-04-11T06:26:36.177Z,100.00
2023-04-11T06:29:06.644Z,100.00
2023-04-11T06:31:41.402Z,100.00
2023-04-11T06:34:08.179Z,100.00
2023-04-11T06:36:42.862Z,100.00
2023-04-11T06:39:09.777Z,100.00
2023-04-11T06:41:36.313Z,100.00
2023-04-11T06:44:02.714Z,100.00
2023-04-11T06:46:29.178Z,100.00
2023-04-11T06:48:56.440Z,100.00
2023-04-11T06:51:23.255Z,100.00
2023-04-11T06:53:49.937Z,100.00
2023-04-11T06:56:16.402Z,100.00
2023-04-11T06:58:43.103Z,100.00
2023-04-11T07:01:09.554Z,100.00
2023-04-11T07:03:36.861Z,100.00
2023-04-11T07:06:03.611Z,100.00
2023-04-11T07:08:30.403Z,100.00
2023-04-11T07:10:56.832Z,100.00
2023-04-11T07:13:23.245Z,100.00
2023-04-11T07:15:49.650Z,100.00
2023-04-11T07:18:16.349Z,100.00
2023-04-11T07:20:43.029Z,100.00
2023-04-11T07:23:09.482Z,100.00
2023-04-11T07:25:36.852Z,100.00
2023-04-11T07:28:07.052Z,100.00
2023-04-11T07:30:35.591Z,100.00
2023-04-11T07:33:03.034Z,100.00
2023-04-11T07:35:30.256Z,100.00
2023-04-11T07:37:58.110Z,100.00
2023-04-11T07:40:24.731Z,100.00
2023-04-11T07:42:51.092Z,100.00
2023-04-11T07:45:17.733Z,100.00
2023-04-11T07:47:44.201Z,100.00
2023-04-11T07:50:10.985Z,100.00
2023-04-11T07:52:37.487Z,100.00
2023-04-11T07:55:04.350Z,100.00
2023-04-11T07:57:30.865Z,100.00
2023-04-11T08:00:01.101Z,100.00
2023-04-11T08:02:27.689Z,100.00
2023-04-11T08:04:54.377Z,100.00
2023-04-11T08:07:20.851Z,100.00
2023-04-11T08:09:47.219Z,100.00
2023-04-11T08:12:14.064Z,100.00
2023-04-11T08:14:40.464Z,100.00
2023-04-11T08:17:17.558Z,100.00
2023-04-11T08:19:51.753Z,100.00
2023-04-11T08:22:18.455Z,100.00
2023-04-11T08:24:45.569Z,100.00
2023-04-11T08:27:12.044Z,100.00
2023-04-11T08:29:38.765Z,100.00
2023-04-11T08:32:05.303Z,100.00
2023-04-11T08:34:34.805Z,100.00
2023-04-11T08:37:01.709Z,100.00
2023-04-11T08:39:28.124Z,100.00
2023-04-11T08:41:55.984Z,100.00
2023-04-11T08:44:37.065Z,100.00
2023-04-11T08:47:05.932Z,100.00
2023-04-11T08:49:32.314Z,100.00
2023-04-11T08:51:59.869Z,100.00
2023-04-11T08:54:26.893Z,100.00
2023-04-11T08:56:53.262Z,100.00
2023-04-11T08:59:20.142Z,100.00
2023-04-11T09:01:46.694Z,100.00
2023-04-11T09:04:13.652Z,100.00
2023-04-11T09:06:42.259Z,100.00
2023-04-11T09:09:29.103Z,100.00
2023-04-11T09:11:55.528Z,100.00
2023-04-11T09:14:26.406Z,100.00
2023-04-11T09:17:00.997Z,100.00
2023-04-11T09:19:30.362Z,100.00
2023-04-11T09:22:00.430Z,100.00
2023-04-11T09:24:31.995Z,100.00
2023-04-11T09:27:17.135Z,100.00
2023-04-11T09:29:48.304Z,100.00
2023-04-11T09:32:32.033Z,100.00
2023-04-11T09:35:20.173Z,100.00
2023-04-11T09:37:49.085Z,100.00
2023-04-11T09:40:17.251Z,100.00
2023-04-11T09:42:45.023Z,100.00
2023-04-11T09:45:22.323Z,100.00
2023-04-11T09:47:51.146Z,100.00
2023-04-11T09:50:17.954Z,100.00
2023-04-11T09:52:45.949Z,100.00
2023-04-11T09:55:16.739Z,100.00
2023-04-11T09:57:48.482Z,100.00
2023-04-11T10:00:18.738Z,100.00
2023-04-11T10:02:48.695Z,100.00
2023-04-11T10:05:18.273Z,100.00
2023-04-11T10:08:07.886Z,100.00
2023-04-11T10:10:36.379Z,100.00
2023-04-11T10:13:03.502Z,87.26
2023-04-11T10:15:30.224Z,97.81
2023-04-11T10:18:13.603Z,87.73
2023-04-11T10:20:50.513Z,89.70
2023-04-11T10:23:17.175Z,85.20
2023-04-11T10:25:50.862Z,100.00
2023-04-11T10:28:35.351Z,92.31
2023-04-11T10:31:10.371Z,79.75
2023-04-11T10:33:38.419Z,94.95
2023-04-11T10:36:12.729Z,89.26
2023-04-11T10:38:47.288Z,79.32
2023-04-11T10:41:40.099Z,90.17
2023-04-11T10:44:24.612Z,82.99
2023-04-11T10:46:53.828Z,99.35
2023-04-11T10:49:40.592Z,91.77
2023-04-11T10:52:23.640Z,83.69
2023-04-11T10:54:54.755Z,85.28
2023-04-11T10:57:22.581Z,67.16
2023-04-11T10:59:52.104Z,70.57
2023-04-11T11:02:22.328Z,78.16
2023-04-11T11:04:49.352Z,75.94
2023-04-11T11:07:16.903Z,71.04
2023-04-11T11:09:49.245Z,72.13
2023-04-11T11:12:16.928Z,67.07
2023-04-11T11:14:46.064Z,72.81
2023-04-11T11:17:13.766Z,74.69
2023-04-11T11:19:47.784Z,65.44
2023-04-11T11:22:18.428Z,70.47
2023-04-11T11:24:45.347Z,67.72
2023-04-11T11:27:24.971Z,63.25
2023-04-11T11:29:52.899Z,62.16
2023-04-11T11:32:33.505Z,62.31
2023-04-11T11:35:00.165Z,62.31
2023-04-11T11:37:26.982Z,59.00
2023-04-11T11:39:54.064Z,59.03
2023-04-11T11:42:20.924Z,63.17
2023-04-11T11:44:47.821Z,62.72
2023-04-11T11:47:20.806Z,59.91
2023-04-11T11:49:47.259Z,65.67
2023-04-11T11:52:41.008Z,58.52
2023-04-11T11:55:28.624Z,59.91
2023-04-11T11:57:59.974Z,60.51
2023-04-11T12:00:28.134Z,53.75
2023-04-11T12:02:57.020Z,59.89
2023-04-11T12:05:25.204Z,56.80
2023-04-11T12:07:55.638Z,59.59
2023-04-11T12:10:22.023Z,53.49
2023-04-11T12:12:53.222Z,63.88
2023-04-11T12:15:22.740Z,61.03
2023-04-11T12:17:51.877Z,52.78
2023-04-11T12:20:25.052Z,51.99
2023-04-11T12:22:53.669Z,52.38
2023-04-11T12:25:22.525Z,53.28
2023-04-11T12:27:49.315Z,51.14
2023-04-11T12:30:15.906Z,54.69
2023-04-11T12:32:43.753Z,52.75
2023-04-11T12:35:11.183Z,54.68
2023-04-11T12:37:38.153Z,54.38
2023-04-11T12:40:12.628Z,54.95
2023-04-11T12:42:53.232Z,54.03
2023-04-11T12:45:25.316Z,57.63
2023-04-11T12:47:52.300Z,57.16
2023-04-11T12:50:19.289Z,58.28
2023-04-11T12:52:45.835Z,64.81
2023-04-11T12:55:13.126Z,57.19
2023-04-11T12:57:39.727Z,57.30
2023-04-11T13:00:07.101Z,53.28
2023-04-11T13:02:42.060Z,54.26
2023-04-11T13:05:11.335Z,56.89
2023-04-11T13:07:37.846Z,55.36
2023-04-11T13:10:07.778Z,51.69
2023-04-11T13:12:39.582Z,51.96
2023-04-11T13:15:07.351Z,52.41
2023-04-11T13:17:33.856Z,52.06
2023-04-11T13:20:00.344Z,55.47
2023-04-11T13:22:27.407Z,54.02
2023-04-11T13:24:53.769Z,52.97
2023-04-11T13:27:20.158Z,53.92
2023-04-11T13:29:46.845Z,56.42
2023-04-11T13:32:13.752Z,53.69
2023-04-11T13:34:40.674Z,52.22
2023-04-11T13:37:07.582Z,48.42
2023-04-11T13:39:34.051Z,48.52
2023-04-11T13:42:01.138Z,47.50
2023-04-11T13:44:27.536Z,51.68
2023-04-11T13:46:54.565Z,47.42
2023-04-11T13:49:21.045Z,51.73
2023-04-11T13:51:47.497Z,50.42
2023-04-11T13:54:13.950Z,53.48
2023-04-11T13:56:41.065Z,51.81
2023-04-11T13:59:07.475Z,52.99
2023-04-11T14:01:34.285Z,53.76
2023-04-11T14:04:01.627Z,51.17
2023-04-11T14:06:28.305Z,48.70
2023-04-11T14:08:54.761Z,49.36
2023-04-11T14:11:21.564Z,49.69
2023-04-11T14:13:48.420Z,51.66
2023-04-11T14:16:15.120Z,52.29
2023-04-11T14:18:41.802Z,51.78
2023-04-11T14:21:08.526Z,54.08
2023-04-11T14:23:34.971Z,54.66
2023-04-11T14:26:01.952Z,58.62
2023-04-11T14:28:29.063Z,57.98
2023-04-11T14:30:56.845Z,52.24
2023-04-11T14:33:23.683Z,56.08
2023-04-11T14:35:50.803Z,55.42
2023-04-11T14:38:17.205Z,52.89
2023-04-11T14:40:44.210Z,54.36
2023-04-11T14:43:11.324Z,51.17
2023-04-11T14:45:37.958Z,50.86
2023-04-11T14:48:14.485Z,51.19
2023-04-11T14:50:41.366Z,50.99
2023-04-11T14:53:07.782Z,53.23
2023-04-11T14:55:47.223Z,54.28
2023-04-11T14:58:13.686Z,50.51
2023-04-11T15:00:40.896Z,50.23
2023-04-11T15:03:07.480Z,50.62
2023-04-11T15:05:33.932Z,49.61
2023-04-11T15:08:00.804Z,49.55
2023-04-11T15:10:27.276Z,51.65
2023-04-11T15:12:53.861Z,52.06
2023-04-11T15:15:20.390Z,51.29
2023-04-11T15:17:49.374Z,58.42
2023-04-11T15:20:16.785Z,52.44
2023-04-11T15:22:45.203Z,53.04
2023-04-11T15:25:13.915Z,53.46
2023-04-11T15:27:40.867Z,53.54
2023-04-11T15:30:08.049Z,54.57
2023-04-11T15:32:34.805Z,51.84
2023-04-11T15:35:01.796Z,51.81
2023-04-11T15:37:28.691Z,56.17
2023-04-11T15:39:55.447Z,55.92
2023-04-11T15:42:21.848Z,52.38
2023-04-11T15:44:48.584Z,52.58
2023-04-11T15:47:16.426Z,53.64
2023-04-11T15:49:43.432Z,52.48
2023-04-11T15:52:09.870Z,52.84
2023-04-11T15:54:36.727Z,52.86
2023-04-11T15:57:04.035Z,52.51
2023-04-11T15:59:30.740Z,55.86
2023-04-11T16:01:57.771Z,53.53
2023-04-11T16:04:25.313Z,53.77
2023-04-11T16:06:52.556Z,52.55
2023-04-11T16:09:19.113Z,53.39
2023-04-11T16:11:45.668Z,53.99
2023-04-11T16:14:12.118Z,62.70
2023-04-11T16:16:38.658Z,57.51
2023-04-11T16:19:06.076Z,57.88
2023-04-11T16:21:32.890Z,57.96
2023-04-11T16:23:59.498Z,56.72
2023-04-11T16:26:29.470Z,56.43
2023-04-11T16:28:56.019Z,57.74
2023-04-11T16:31:24.865Z,57.61
2023-04-11T16:33:53.301Z,56.60
2023-04-11T16:36:20.508Z,56.80
2023-04-11T16:38:47.657Z,56.19
2023-04-11T16:41:16.405Z,59.33
2023-04-11T16:43:43.207Z,59.25
2023-04-11T16:46:14.694Z,59.84
2023-04-11T16:48:43.162Z,57.79
2023-04-11T16:51:13.516Z,59.15
2023-04-11T16:53:40.559Z,60.41
2023-04-11T16:56:07.340Z,61.28
2023-04-11T16:58:34.033Z,62.22
2023-04-11T17:01:01.732Z,70.07
2023-04-11T17:03:28.967Z,74.97
2023-04-11T17:05:55.810Z,85.49
2023-04-11T17:08:22.306Z,89.62
2023-04-11T17:10:48.721Z,91.96
2023-04-11T17:13:15.922Z,99.23
2023-04-11T17:15:42.410Z,100.00
2023-04-11T17:18:08.912Z,100.00
2023-04-11T17:20:36.619Z,100.00
2023-04-11T17:23:03.375Z,100.00
2023-04-11T17:25:30.089Z,100.00
2023-04-11T17:27:57.381Z,99.40
2023-04-11T17:30:23.811Z,99.02
2023-04-11T17:32:50.610Z,100.00
2023-04-11T17:35:17.044Z,100.00
2023-04-11T17:37:43.775Z,100.00
2023-04-11T17:40:14.335Z,100.00
2023-04-11T17:42:44.003Z,100.00
2023-04-11T17:45:18.541Z,100.00
2023-04-11T17:47:49.731Z,100.00
2023-04-11T17:50:17.107Z,100.00
2023-04-11T17:52:46.120Z,100.00
2023-04-11T17:55:15.195Z,100.00
2023-04-11T17:57:42.576Z,100.00
2023-04-11T18:00:17.555Z,100.00
2023-04-11T18:02:48.119Z,100.00
2023-04-11T18:05:23.820Z,100.00
2023-04-11T18:07:53.037Z,100.00
2023-04-11T18:10:20.239Z,100.00
2023-04-11T18:12:49.110Z,100.00
2023-04-11T18:15:16.023Z,100.00
2023-04-11T18:17:43.848Z,100.00
2023-04-11T18:20:12.601Z,100.00
2023-04-11T18:22:41.140Z,100.00
2023-04-11T18:25:08.946Z,100.00
2023-04-11T18:27:37.175Z,100.00
2023-04-11T18:30:05.784Z,100.00
2023-04-11T18:32:37.778Z,100.00
2023-04-11T18:35:11.640Z,100.00
2023-04-11T18:37:42.964Z,100.00
2023-04-11T18:40:14.090Z,100.00
2023-04-11T18:42:43.706Z,100.00
2023-04-11T18:45:11.584Z,100.00
2023-04-11T18:47:40.034Z,100.00
2023-04-11T18:50:08.143Z,100.00
2023-04-11T18:52:35.103Z,100.00
2023-04-11T18:55:01.567Z,100.00
2023-04-11T18:57:31.933Z,100.00
2023-04-11T19:00:03.944Z,100.00
2023-04-11T19:02:31.337Z,100.00
2023-04-11T19:04:57.874Z,100.00
2023-04-11T19:07:24.329Z,100.00
2023-04-11T19:09:50.864Z,100.00
2023-04-11T19:12:19.001Z,100.00
2023-04-11T19:14:45.456Z,100.00
2023-04-11T19:17:15.246Z,100.00
2023-04-11T19:19:43.133Z,100.00
2023-04-11T19:22:09.842Z,100.00
2023-04-11T19:24:36.275Z,100.00
2023-04-11T19:27:02.914Z,100.00
2023-04-11T19:29:29.609Z,100.00
2023-04-11T19:31:55.996Z,100.00
2023-04-11T19:34:22.634Z,100.00
2023-04-11T19:36:49.034Z,100.00
2023-04-11T19:39:15.436Z,100.00
2023-04-11T19:41:46.092Z,100.00
2023-04-11T19:44:13.119Z,100.00
2023-04-11T19:46:39.950Z,100.00
2023-04-11T19:49:06.696Z,100.00
2023-04-11T19:51:33.090Z,100.00
2023-04-11T19:53:59.825Z,100.00
2023-04-11T19:56:26.916Z,100.00
2023-04-11T19:58:53.300Z,100.00
2023-04-11T20:01:20.106Z,100.00
2023-04-11T20:03:46.771Z,100.00
2023-04-11T20:06:13.572Z,100.00
2023-04-11T20:08:40.483Z,100.00
2023-04-11T20:11:06.881Z,100.00
2023-04-11T20:13:34.176Z,100.00
2023-04-11T20:16:04.506Z,100.00
2023-04-11T20:18:31.358Z,100.00
2023-04-11T20:20:58.034Z,100.00
2023-04-11T20:23:24.402Z,100.00
2023-04-11T20:25:50.971Z,100.00
2023-04-11T20:28:17.331Z,100.00
2023-04-11T20:30:43.797Z,100.00
2023-04-11T20:33:10.608Z,100.00
2023-04-11T20:35:37.114Z,100.00
2023-04-11T20:38:03.642Z,100.00
2023-04-11T20:40:30.011Z,100.00
2023-04-11T20:42:57.266Z,100.00
2023-04-11T20:45:25.578Z,100.00
2023-04-11T20:47:52.629Z,100.00
2023-04-11T20:50:19.768Z,100.00
2023-04-11T20:52:51.268Z,100.00
2023-04-11T20:55:17.997Z,100.00
2023-04-11T20:57:44.947Z,100.00
2023-04-11T21:00:17.371Z,100.00
2023-04-11T21:02:45.855Z,100.00
2023-04-11T21:05:13.647Z,100.00
2023-04-11T21:07:41.904Z,100.00
2023-04-11T21:10:09.802Z,100.00
2023-04-11T21:12:37.085Z,100.00
2023-04-11T21:15:04.212Z,100.00
2023-04-11T21:17:35.685Z,100.00
2023-04-11T21:20:10.036Z,100.00
2023-04-11T21:22:36.999Z,100.00
2023-04-11T21:25:04.201Z,100.00
2023-04-11T21:27:30.780Z,100.00
2023-04-11T21:29:57.167Z,100.00
2023-04-11T21:32:23.575Z,100.00
2023-04-11T21:34:50.218Z,100.00
2023-04-11T21:37:16.665Z,100.00
2023-04-11T21:39:43.546Z,100.00
2023-04-11T21:42:09.948Z,100.00
2023-04-11T21:44:37.390Z,100.00
2023-04-11T21:47:04.289Z,100.00
2023-04-11T21:49:31.317Z,100.00
2023-04-11T21:51:57.741Z,100.00
2023-04-11T21:54:24.156Z,100.00
2023-04-11T21:56:50.655Z,100.00
2023-04-11T21:59:17.124Z,100.00
2023-04-11T22:01:44.269Z,100.00
2023-04-11T22:04:11.234Z,100.00
2023-04-11T22:06:38.992Z,100.00
2023-04-11T22:09:05.465Z,100.00
2023-04-11T22:11:32.429Z,100.00
2023-04-11T22:14:01.300Z,100.00
2023-04-11T22:16:31.957Z,100.00
2023-04-11T22:18:58.859Z,100.00
2023-04-11T22:21:26.494Z,100.00
2023-04-11T22:23:56.381Z,100.00
2023-04-11T22:26:34.207Z,100.00
2023-04-11T22:29:05.412Z,100.00
2023-04-11T22:31:34.324Z,100.00
2023-04-11T22:34:04.012Z,100.00
2023-04-11T22:36:35.454Z,100.00
2023-04-11T22:39:04.845Z,100.00
2023-04-11T22:41:33.468Z,100.00
2023-04-11T22:44:00.818Z,100.00
2023-04-11T22:46:34.247Z,100.00
2023-04-11T22:49:00.665Z,100.00
2023-04-11T22:51:30.276Z,100.00
2023-04-11T22:53:57.420Z,100.00
2023-04-11T22:56:24.215Z,100.00
2023-04-11T22:58:50.604Z,100.00
2023-04-11T23:01:17.580Z,100.00
2023-04-11T23:03:44.059Z,100.00
2023-04-11T23:06:10.887Z,100.00
2023-04-11T23:08:37.628Z,100.00
2023-04-11T23:11:04.989Z,100.00
2023-04-11T23:13:31.497Z,100.00
2023-04-11T23:16:00.628Z,100.00
2023-04-11T23:18:27.080Z,100.00
2023-04-11T23:20:53.730Z,100.00
2023-04-11T23:23:20.626Z,100.00
2023-04-11T23:25:47.116Z,100.00
2023-04-11T23:28:13.534Z,100.00
2023-04-11T23:30:40.635Z,100.00
2023-04-11T23:33:08.868Z,100.00
2023-04-11T23:35:38.621Z,100.00
2023-04-11T23:38:05.873Z,100.00
2023-04-11T23:40:32.705Z,100.00
2023-04-11T23:42:59.098Z,100.00
2023-04-11T23:45:25.651Z,100.00
2023-04-11T23:47:52.737Z,100.00
2023-04-11T23:50:19.530Z,100.00
2023-04-11T23:52:46.832Z,100.00
2023-04-11T23:55:13.485Z,100.00
2023-04-11T23:57:40.200Z,100.00
